Time;durP1;ratioP1;P1;durP2;ratioP2;P2;SDS_P1;SDS_P2;PMS_P1;PMS_P2;Temp;Humidity;BMP_temperature;BMP_pressure;BME280_temperature;BME280_humidity;BME280_pressure;Samples;Min_cycle;Max_cycle;Signal;HPM_P1;HPM_P2
2023/06/01 00:00:44;;;;;;;8.85;2.70;;;;;;;15.80;89.12;101196.53;5184048;28;20037;-75
2023/06/01 00:03:14;;;;;;;7.00;2.53;;;;;;;15.70;90.66;101197.88;5179995;28;20482;-75
2023/06/01 00:05:44;;;;;;;8.38;2.80;;;;;;;15.73;89.82;101197.72;5183113;28;20033;-74
2023/06/01 00:08:15;;;;;;;6.07;2.85;;;;;;;15.65;91.10;101199.88;5187848;28;20045;-75
2023/06/01 00:10:45;;;;;;;9.40;2.70;;;;;;;15.62;91.15;101199.16;5180310;28;20034;-74
2023/06/01 00:13:16;;;;;;;6.28;2.58;;;;;;;15.46;90.91;101204.28;5181045;28;20491;-76
2023/06/01 00:15:46;;;;;;;6.55;2.85;;;;;;;15.39;91.30;101202.81;5187509;28;20097;-74
2023/06/01 00:18:17;;;;;;;8.23;2.92;;;;;;;15.17;92.60;101201.22;5180349;28;20076;-73
2023/06/01 00:20:47;;;;;;;6.68;2.85;;;;;;;15.20;92.90;101203.69;5170315;28;20036;-75
2023/06/01 00:23:19;;;;;;;7.18;2.78;;;;;;;15.08;92.90;101206.88;5190183;28;20025;-75
2023/06/01 00:25:50;;;;;;;7.90;2.90;;;;;;;15.13;93.09;101208.38;5186041;28;20017;-74
2023/06/01 00:28:20;;;;;;;9.27;2.80;;;;;;;14.96;93.77;101207.38;5176508;28;20056;-75
2023/06/01 00:30:51;;;;;;;8.85;3.17;;;;;;;14.90;93.63;101208.53;5184537;28;20022;-76
2023/06/01 00:33:22;;;;;;;11.80;3.40;;;;;;;14.78;94.17;101212.59;5179826;28;20108;-74
2023/06/01 00:35:52;;;;;;;8.55;3.08;;;;;;;14.69;94.44;101207.72;5183649;28;20104;-76
2023/06/01 00:38:22;;;;;;;11.15;3.40;;;;;;;14.65;93.56;101206.16;5183267;28;20121;-75
2023/06/01 00:40:53;;;;;;;6.43;3.03;;;;;;;14.68;94.12;101212.16;5171802;28;20289;-72
2023/06/01 00:43:23;;;;;;;7.65;2.83;;;;;;;14.55;93.83;101207.44;5187128;28;20034;-75
2023/06/01 00:45:54;;;;;;;7.82;3.67;;;;;;;14.40;94.39;101218.63;5181763;28;20025;-74
2023/06/01 00:48:24;;;;;;;9.45;3.55;;;;;;;14.36;95.06;101215.25;5184367;28;20026;-76
2023/06/01 00:50:57;;;;;;;10.30;3.65;;;;;;;14.29;95.36;101213.75;5183861;28;20037;-74
2023/06/01 00:53:27;;;;;;;7.65;2.97;;;;;;;14.28;95.50;101222.56;5186556;28;20445;-75
2023/06/01 00:55:58;;;;;;;11.40;3.58;;;;;;;14.04;96.17;101220.03;5182682;28;20025;-73
2023/06/01 00:58:28;;;;;;;8.05;3.60;;;;;;;13.94;96.48;101221.31;5183661;28;20080;-75
2023/06/01 01:00:58;;;;;;;11.38;3.88;;;;;;;13.93;96.61;101219.59;5184435;28;20029;-74
2023/06/01 01:03:31;;;;;;;9.20;3.40;;;;;;;13.99;96.74;101225.50;5182733;28;20044;-75
2023/06/01 01:06:14;;;;;;;8.55;3.35;;;;;;;13.94;97.36;101213.44;5182823;28;20366;-76
2023/06/01 01:09:07;;;;;;;9.45;3.53;;;;;;;13.71;97.81;101224.00;5182935;28;20030;-74
2023/06/01 01:11:39;;;;;;;10.25;3.42;;;;;;;13.80;97.98;101221.00;5185536;28;20627;-74
2023/06/01 01:14:19;;;;;;;9.98;3.53;;;;;;;13.83;97.74;101218.25;5182196;28;20024;-74
2023/06/01 01:17:11;;;;;;;11.20;3.90;;;;;;;13.72;97.81;101215.19;5188867;28;20097;-72
2023/06/01 01:19:47;;;;;;;11.27;4.38;;;;;;;13.57;97.48;101215.75;5191311;28;20568;-74
2023/06/01 01:22:45;;;;;;;11.45;3.92;;;;;;;13.50;99.45;101225.63;5187530;28;20032;-74
2023/06/01 01:25:21;;;;;;;10.65;4.07;;;;;;;13.33;99.27;101220.16;5188668;28;20076;-75
2023/06/01 01:28:10;;;;;;;12.15;3.60;;;;;;;13.42;99.38;101221.59;5184878;28;20400;-74
2023/06/01 01:30:42;;;;;;;8.82;3.70;;;;;;;13.39;98.55;101222.53;5188513;28;20708;-74
2023/06/01 01:33:13;;;;;;;7.55;3.90;;;;;;;13.21;99.30;101217.13;5184811;28;20082;-73
2023/06/01 01:35:44;;;;;;;9.98;4.22;;;;;;;13.14;99.66;101223.47;5189486;28;20648;-75
2023/06/01 01:38:15;;;;;;;9.23;3.90;;;;;;;13.09;99.66;101225.41;5188038;28;20031;-75
2023/06/01 01:40:45;;;;;;;7.82;4.18;;;;;;;13.02;100.00;101226.53;5193437;28;20056;-75
2023/06/01 01:43:15;;;;;;;10.77;4.03;;;;;;;12.93;100.00;101224.25;5186669;28;20553;-74
2023/06/01 01:45:54;;;;;;;10.00;4.50;;;;;;;13.11;100.00;101213.09;5189139;28;20029;-74
2023/06/01 01:48:35;;;;;;;9.50;4.13;;;;;;;13.05;99.49;101221.19;5189316;28;20511;-75
2023/06/01 01:51:15;;;;;;;9.80;4.45;;;;;;;12.96;99.04;101229.38;5186178;28;20040;-75
2023/06/01 01:53:48;;;;;;;9.48;4.40;;;;;;;12.90;100.00;101221.69;5188970;28;20025;-73
2023/06/01 01:56:19;;;;;;;13.00;4.88;;;;;;;12.87;100.00;101229.69;5187175;28;20503;-75
2023/06/01 01:58:50;;;;;;;11.65;4.78;;;;;;;12.88;99.52;101213.03;5189228;28;20145;-74
2023/06/01 02:01:21;;;;;;;12.93;4.75;;;;;;;12.96;99.88;101211.00;5189389;28;20101;-75
2023/06/01 02:03:58;;;;;;;11.90;5.00;;;;;;;12.84;99.84;101211.41;5186356;28;20395;-75
2023/06/01 02:06:29;;;;;;;9.55;4.70;;;;;;;13.01;99.45;101209.06;5187653;28;20033;-75
2023/06/01 02:09:00;;;;;;;11.63;4.55;;;;;;;13.12;99.98;101210.44;5188927;28;20075;-76
2023/06/01 02:11:30;;;;;;;12.00;4.60;;;;;;;13.18;98.99;101218.06;5189376;28;20434;-72
2023/06/01 02:14:01;;;;;;;16.73;4.78;;;;;;;13.07;98.59;101206.25;5186872;28;20030;-74
2023/06/01 02:16:31;;;;;;;9.27;4.60;;;;;;;13.22;97.91;101209.16;5188181;28;20535;-75
2023/06/01 02:19:02;;;;;;;10.80;4.63;;;;;;;13.14;96.20;101215.59;5187307;28;20052;-75
2023/06/01 02:21:32;;;;;;;9.02;4.25;;;;;;;13.07;96.98;101206.25;5187957;28;20088;-74
2023/06/01 02:24:06;;;;;;;8.18;3.95;;;;;;;12.99;96.99;101209.16;5187197;28;20044;-75
2023/06/01 02:26:36;;;;;;;10.65;4.32;;;;;;;12.79;96.97;101210.69;5189477;28;20105;-75
2023/06/01 02:29:07;;;;;;;9.10;4.07;;;;;;;12.80;98.42;101215.03;5186412;28;20223;-71
2023/06/01 02:31:37;;;;;;;10.13;3.80;;;;;;;12.64;98.04;101216.47;5186672;28;20540;-75
2023/06/01 02:34:07;;;;;;;9.98;3.53;;;;;;;12.56;98.71;101209.75;5186123;28;20100;-72
2023/06/01 02:36:38;;;;;;;8.95;3.28;;;;;;;12.45;99.57;101210.13;5190736;28;20501;-75
2023/06/01 02:39:08;;;;;;;6.68;3.03;;;;;;;12.45;99.26;101212.75;5191223;28;20030;-74
2023/06/01 02:41:39;;;;;;;9.23;3.88;;;;;;;12.53;100.00;101216.00;5188475;28;20112;-75
2023/06/01 02:44:09;;;;;;;10.38;3.22;;;;;;;12.57;100.00;101212.34;5185688;28;20038;-75
2023/06/01 02:46:39;;;;;;;11.25;3.17;;;;;;;12.71;99.95;101209.25;5188954;28;20025;-73
2023/06/01 02:49:10;;;;;;;9.05;3.22;;;;;;;12.71;99.51;101210.13;5183541;28;20029;-71
2023/06/01 02:51:40;;;;;;;9.50;2.97;;;;;;;12.58;99.98;101203.56;5186536;28;20132;-74
2023/06/01 02:54:10;;;;;;;14.05;3.17;;;;;;;12.59;99.66;101201.78;5185566;28;20026;-76
2023/06/01 02:56:41;;;;;;;8.77;3.42;;;;;;;12.53;100.00;101202.88;5188954;28;20499;-75
2023/06/01 02:59:11;;;;;;;9.13;3.65;;;;;;;12.60;100.00;101206.16;5185970;28;20488;-75
2023/06/01 03:01:42;;;;;;;11.43;3.35;;;;;;;12.65;99.22;101201.59;5186650;28;20078;-75
2023/06/01 03:04:13;;;;;;;10.02;3.42;;;;;;;12.44;100.00;101204.94;5184239;28;20057;-75
2023/06/01 03:06:43;;;;;;;8.75;4.35;;;;;;;12.57;100.00;101199.25;5189387;28;20079;-76
2023/06/01 03:09:13;;;;;;;11.25;3.58;;;;;;;12.67;100.00;101202.41;5183421;28;20116;-75
2023/06/01 03:11:43;;;;;;;8.48;3.40;;;;;;;12.79;100.00;101197.59;5189436;28;20041;-73
2023/06/01 03:14:14;;;;;;;8.10;3.40;;;;;;;12.80;98.84;101193.22;5188003;28;20040;-74
2023/06/01 03:16:44;;;;;;;6.40;3.00;;;;;;;12.67;98.80;101189.28;5187655;28;20491;-74
2023/06/01 03:19:14;;;;;;;9.27;3.40;;;;;;;12.73;99.87;101197.81;5186548;28;20075;-75
2023/06/01 03:21:46;;;;;;;12.18;3.88;;;;;;;12.71;99.86;101198.75;5186332;28;20421;-74
2023/06/01 03:24:17;;;;;;;7.82;3.10;;;;;;;12.62;100.00;101196.47;5187618;28;20487;-74
2023/06/01 03:26:47;;;;;;;8.93;3.60;;;;;;;12.43;100.00;101193.59;5185775;28;20025;-74
2023/06/01 03:29:17;;;;;;;9.35;3.78;;;;;;;12.45;100.00;101190.94;5188221;28;20041;-75
2023/06/01 03:31:48;;;;;;;12.15;3.75;;;;;;;12.33;100.00;101191.31;5184769;28;20124;-71
2023/06/01 03:34:19;;;;;;;11.80;3.90;;;;;;;12.35;100.00;101185.13;5189753;28;20057;-75
2023/06/01 03:36:49;;;;;;;9.88;3.80;;;;;;;12.39;100.00;101192.00;5185891;28;20562;-71
2023/06/01 03:39:20;;;;;;;8.10;3.35;;;;;;;12.27;100.00;101192.38;5187768;28;20100;-76
2023/06/01 03:41:50;;;;;;;10.02;4.05;;;;;;;12.24;100.00;101189.88;5185249;28;20060;-76
2023/06/01 03:44:21;;;;;;;9.63;4.03;;;;;;;12.35;100.00;101194.75;5189341;28;20574;-75
2023/06/01 03:46:51;;;;;;;8.38;3.78;;;;;;;12.39;100.00;101188.50;5185515;28;20024;-73
2023/06/01 03:49:21;;;;;;;10.88;4.00;;;;;;;12.52;100.00;101193.31;5186713;28;20057;-75
2023/06/01 03:51:51;;;;;;;9.10;4.25;;;;;;;12.52;100.00;101185.44;5186526;28;20037;-75
2023/06/01 03:54:22;;;;;;;5.80;3.35;;;;;;;12.75;100.00;101182.00;5185925;28;20023;-75
2023/06/01 03:56:52;;;;;;;11.00;3.63;;;;;;;12.79;100.00;101181.84;5184707;28;20028;-76
2023/06/01 03:59:23;;;;;;;11.27;3.67;;;;;;;12.68;100.00;101189.25;5187150;28;20384;-77
2023/06/01 04:01:53;;;;;;;10.48;3.65;;;;;;;12.75;100.00;101182.88;5179917;28;20033;-73
2023/06/01 04:04:28;;;;;;;11.18;4.07;;;;;;;12.60;100.00;101183.41;5190299;28;20033;-74
2023/06/01 04:07:00;;;;;;;11.25;3.92;;;;;;;12.54;100.00;101186.25;5186311;28;20022;-75
2023/06/01 04:09:31;;;;;;;9.57;3.65;;;;;;;12.56;100.00;101184.41;5185802;28;20499;-76
2023/06/01 04:12:02;;;;;;;11.20;4.35;;;;;;;12.54;100.00;101191.47;5185240;28;20167;-75
2023/06/01 04:14:32;;;;;;;8.43;3.92;;;;;;;12.81;100.00;101185.28;5186254;28;20170;-74
2023/06/01 04:17:03;;;;;;;10.25;4.43;;;;;;;12.73;100.00;101187.31;5183661;28;20097;-77
2023/06/01 04:19:38;;;;;;;12.77;4.15;;;;;;;12.76;100.00;101191.56;5186962;28;20065;-75
2023/06/01 04:22:08;;;;;;;9.98;4.32;;;;;;;12.88;100.00;101192.03;5185331;28;20488;-75
2023/06/01 04:24:38;;;;;;;11.40;4.45;;;;;;;12.77;100.00;101191.53;5184841;28;20052;-75
2023/06/01 04:27:09;;;;;;;13.30;3.97;;;;;;;12.85;100.00;101181.63;5185033;28;20487;-75
2023/06/01 04:29:39;;;;;;;9.93;3.75;;;;;;;12.74;100.00;101190.78;5187142;28;20108;-75
2023/06/01 04:32:10;;;;;;;11.00;3.83;;;;;;;12.80;100.00;101191.44;5186772;28;20021;-74
2023/06/01 04:34:40;;;;;;;10.32;3.97;;;;;;;12.66;100.00;101188.41;5184750;28;20022;-70
2023/06/01 04:37:10;;;;;;;13.70;4.20;;;;;;;12.60;100.00;101186.00;5182190;28;20076;-73
2023/06/01 04:39:42;;;;;;;10.85;3.50;;;;;;;12.65;100.00;101194.56;5187517;28;20057;-74
2023/06/01 04:42:13;;;;;;;10.60;3.90;;;;;;;12.64;100.00;101182.38;5184765;28;20037;-75
2023/06/01 04:44:45;;;;;;;8.35;3.55;;;;;;;12.77;100.00;101183.69;5182592;28;20076;-78
2023/06/01 04:47:16;;;;;;;9.35;4.45;;;;;;;12.84;100.00;101182.53;5181746;28;20022;-75
2023/06/01 04:49:46;;;;;;;11.90;4.15;;;;;;;12.97;100.00;101189.09;5189025;28;20557;-74
2023/06/01 04:52:18;;;;;;;9.07;4.55;;;;;;;12.93;100.00;101187.50;5187836;28;20026;-76
2023/06/01 04:54:48;;;;;;;8.95;3.80;;;;;;;12.89;100.00;101183.25;5191595;28;20395;-73
2023/06/01 04:57:18;;;;;;;7.28;3.67;;;;;;;12.86;99.12;101182.50;5188632;28;20025;-74
2023/06/01 04:59:50;;;;;;;10.25;4.00;;;;;;;12.88;99.29;101185.91;5191712;28;20080;-73
2023/06/01 05:02:20;;;;;;;9.38;4.10;;;;;;;12.68;100.00;101188.38;5191904;28;20503;-77
2023/06/01 05:04:50;;;;;;;10.10;4.65;;;;;;;12.88;99.99;101184.16;5187090;28;20037;-76
2023/06/01 05:07:21;;;;;;;7.38;3.83;;;;;;;12.89;99.65;101178.84;5189178;28;20518;-75
2023/06/01 05:09:51;;;;;;;10.45;4.25;;;;;;;12.91;99.74;101182.25;5190825;28;20037;-75
2023/06/01 05:12:21;;;;;;;12.02;4.72;;;;;;;12.57;100.00;101178.25;5191467;28;20039;-75
2023/06/01 05:14:52;;;;;;;12.38;4.25;;;;;;;12.67;100.00;101186.66;5191237;28;20037;-75
2023/06/01 05:17:22;;;;;;;12.27;4.30;;;;;;;12.53;100.00;101173.16;5190037;28;20030;-74
2023/06/01 05:19:52;;;;;;;11.38;4.15;;;;;;;12.49;100.00;101182.88;5189662;28;20037;-76
2023/06/01 05:22:24;;;;;;;11.70;4.57;;;;;;;12.49;100.00;101177.66;5190821;28;20026;-75
2023/06/01 05:24:55;;;;;;;8.65;4.07;;;;;;;12.68;100.00;101178.75;5197278;28;20033;-74
2023/06/01 05:27:25;;;;;;;10.65;4.20;;;;;;;12.75;100.00;101180.25;5189020;28;20025;-76
2023/06/01 05:29:56;;;;;;;12.43;4.57;;;;;;;12.95;100.00;101167.31;5189377;28;20137;-74
2023/06/01 05:32:26;;;;;;;9.40;3.72;;;;;;;13.11;99.95;101164.09;5191066;28;20402;-75
2023/06/01 05:34:56;;;;;;;8.95;3.47;;;;;;;13.14;98.63;101168.38;5191435;28;20125;-75
2023/06/01 05:37:26;;;;;;;10.00;4.13;;;;;;;13.13;98.80;101167.53;5184811;28;20244;-75
2023/06/01 05:39:57;;;;;;;10.70;4.07;;;;;;;13.08;99.22;101164.19;5188717;28;20128;-75
2023/06/01 05:42:27;;;;;;;9.27;4.18;;;;;;;12.97;98.97;101164.66;5184145;28;20245;-75
2023/06/01 05:44:57;;;;;;;10.48;4.53;;;;;;;12.69;100.00;101169.97;5189132;28;20056;-77
2023/06/01 05:47:28;;;;;;;7.55;3.65;;;;;;;12.69;100.00;101175.22;5188915;28;20017;-75
2023/06/01 05:49:58;;;;;;;9.18;3.90;;;;;;;12.86;100.00;101172.88;5187754;28;20025;-74
2023/06/01 05:52:28;;;;;;;8.85;4.32;;;;;;;12.83;100.00;101172.94;5187725;28;20279;-75
2023/06/01 05:54:58;;;;;;;7.22;3.30;;;;;;;12.97;99.42;101167.28;5189789;28;20507;-76
2023/06/01 05:57:29;;;;;;;9.73;4.40;;;;;;;12.86;99.25;101167.63;5187504;28;20029;-74
2023/06/01 05:59:59;;;;;;;9.73;3.78;;;;;;;12.96;97.51;101174.28;5186829;28;20030;-74
2023/06/01 06:02:29;;;;;;;14.65;4.10;;;;;;;13.08;98.03;101163.34;5185925;28;20183;-75
2023/06/01 06:05:00;;;;;;;8.10;3.63;;;;;;;13.18;97.47;101162.94;5188234;28;20052;-77
2023/06/01 06:07:30;;;;;;;6.18;3.40;;;;;;;13.18;97.17;101164.72;5188715;28;20079;-74
2023/06/01 06:10:01;;;;;;;7.15;3.03;;;;;;;13.34;97.12;101161.47;5186677;28;20026;-75
2023/06/01 06:12:31;;;;;;;6.57;3.60;;;;;;;13.48;97.38;101158.31;5187658;28;20484;-76
2023/06/01 06:15:01;;;;;;;9.02;3.78;;;;;;;13.55;96.54;101160.66;5192197;28;20036;-76
2023/06/01 06:17:32;;;;;;;8.77;3.83;;;;;;;13.64;95.87;101159.44;5188448;28;20025;-77
2023/06/01 06:20:06;;;;;;;12.20;3.67;;;;;;;13.45;96.24;101163.69;5189712;28;20407;-75
2023/06/01 06:22:36;;;;;;;8.98;4.57;;;;;;;13.35;97.54;101163.19;5192144;28;20036;-75
2023/06/01 06:25:08;;;;;;;7.70;4.10;;;;;;;13.28;97.75;101163.47;5187407;28;20415;-76
2023/06/01 06:27:38;;;;;;;7.80;3.58;;;;;;;13.30;96.72;101162.50;5190007;28;20018;-75
2023/06/01 06:30:09;;;;;;;8.40;3.45;;;;;;;13.20;97.59;101166.38;5187593;28;20492;-77
2023/06/01 06:32:39;;;;;;;10.15;3.47;;;;;;;13.18;97.61;101160.31;5187955;28;20087;-74
2023/06/01 06:35:12;;;;;;;8.38;3.50;;;;;;;13.22;97.02;101163.72;5186240;28;20057;-72
2023/06/01 06:37:43;;;;;;;9.32;3.30;;;;;;;13.20;97.14;101162.91;5186275;28;20528;-75
2023/06/01 06:40:13;;;;;;;8.60;3.33;;;;;;;13.29;97.00;101157.31;5187582;28;20086;-74
2023/06/01 06:42:44;;;;;;;8.18;3.58;;;;;;;13.32;96.53;101162.44;5188480;28;20411;-73
2023/06/01 06:45:15;;;;;;;6.75;3.42;;;;;;;13.24;97.68;101164.50;5189214;28;20116;-74
2023/06/01 06:47:46;;;;;;;9.77;4.10;;;;;;;13.27;97.26;101159.13;5188190;28;20040;-77
2023/06/01 06:50:17;;;;;;;8.80;3.60;;;;;;;13.26;98.89;101162.66;5188068;28;20040;-75
2023/06/01 06:52:47;;;;;;;9.95;3.67;;;;;;;13.14;98.05;101166.59;5186198;28;20406;-73
2023/06/01 06:55:17;;;;;;;10.00;3.45;;;;;;;13.12;99.44;101167.56;5187120;28;20124;-76
2023/06/01 06:57:48;;;;;;;10.50;3.58;;;;;;;13.39;99.61;101166.56;5189011;28;20024;-71
2023/06/01 07:00:20;;;;;;;7.68;3.25;;;;;;;13.39;98.81;101170.03;5190296;28;20108;-75
2023/06/01 07:02:50;;;;;;;10.93;4.07;;;;;;;13.53;97.51;101172.13;5185979;28;20109;-77
2023/06/01 07:05:21;;;;;;;10.95;3.95;;;;;;;13.65;97.15;101176.91;5188468;28;20112;-77
2023/06/01 07:07:51;;;;;;;5.78;2.67;;;;;;;13.53;96.97;101178.25;5185180;28;20089;-74
2023/06/01 07:10:21;;;;;;;6.35;2.70;;;;;;;13.14;97.50;101181.47;5192873;28;20025;-75
2023/06/01 07:12:51;;;;;;;7.40;2.80;;;;;;;13.13;98.77;101170.16;5184189;28;20041;-75
2023/06/01 07:15:24;;;;;;;7.35;3.00;;;;;;;13.65;97.97;101169.03;5186375;28;20025;-77
2023/06/01 07:17:54;;;;;;;6.70;2.60;;;;;;;14.00;95.41;101158.00;5187209;28;20263;-75
2023/06/01 07:20:25;;;;;;;8.05;2.78;;;;;;;14.19;94.07;101157.22;5183791;28;20578;-75
2023/06/01 07:22:55;;;;;;;7.25;2.42;;;;;;;14.06;91.90;101165.66;5185697;28;20153;-75
2023/06/01 07:25:26;;;;;;;5.28;2.30;;;;;;;14.11;92.03;101168.94;5185968;28;20419;-75
2023/06/01 07:27:56;;;;;;;8.10;2.63;;;;;;;14.06;92.23;101168.28;5186877;28;20026;-77
2023/06/01 07:30:26;;;;;;;5.22;2.20;;;;;;;14.15;92.39;101174.03;5184442;28;20375;-76
2023/06/01 07:32:56;;;;;;;7.25;2.22;;;;;;;14.15;91.07;101173.16;5187987;28;20571;-76
2023/06/01 07:35:27;;;;;;;6.10;2.30;;;;;;;13.88;91.25;101176.91;5185277;28;20026;-73
2023/06/01 07:37:57;;;;;;;5.50;2.25;;;;;;;14.15;90.63;101181.03;5187679;28;20488;-74
2023/06/01 07:40:28;;;;;;;5.40;2.30;;;;;;;14.14;89.71;101177.56;5183842;28;20115;-75
2023/06/01 07:42:58;;;;;;;5.55;2.38;;;;;;;14.32;88.86;101175.97;5184540;28;20065;-75
2023/06/01 07:45:29;;;;;;;5.80;2.30;;;;;;;14.66;88.85;101176.28;5183586;28;20391;-76
2023/06/01 07:48:00;;;;;;;7.90;2.40;;;;;;;14.70;87.63;101167.31;5184815;28;20368;-76
2023/06/01 07:50:31;;;;;;;5.03;2.22;;;;;;;14.97;87.83;101173.13;5188686;28;20455;-75
2023/06/01 07:53:02;;;;;;;6.65;2.58;;;;;;;15.07;86.74;101169.16;5184536;28;20037;-75
2023/06/01 07:55:32;;;;;;;4.32;2.13;;;;;;;15.04;86.63;101173.69;5186964;28;20499;-76
2023/06/01 07:58:04;;;;;;;6.15;2.30;;;;;;;15.05;85.79;101162.25;5184143;28;20037;-74
2023/06/01 08:00:34;;;;;;;6.05;2.10;;;;;;;15.06;86.44;101171.84;5187396;28;20022;-75
2023/06/01 08:03:06;;;;;;;5.23;2.30;;;;;;;15.24;86.31;101163.13;5184189;28;20301;-74
2023/06/01 08:05:36;;;;;;;6.10;2.10;;;;;;;15.51;84.04;101159.28;5185081;28;20666;-75
2023/06/01 08:08:06;;;;;;;6.50;2.10;;;;;;;15.63;83.92;101162.19;5186526;28;20056;-74
2023/06/01 08:10:39;;;;;;;6.38;2.00;;;;;;;15.87;84.66;101149.63;5184146;28;20479;-77
2023/06/01 08:13:09;;;;;;;8.35;2.30;;;;;;;15.79;81.79;101159.69;5183531;28;20446;-75
2023/06/01 08:15:39;;;;;;;7.57;2.40;;;;;;;15.45;84.10;101165.69;5187836;28;20080;-74
2023/06/01 08:18:09;;;;;;;7.05;2.70;;;;;;;15.16;84.75;101160.84;5187342;28;20029;-75
2023/06/01 08:20:40;;;;;;;10.13;2.60;;;;;;;15.51;85.25;101162.75;5183999;28;20126;-75
2023/06/01 08:23:10;;;;;;;5.22;2.10;;;;;;;15.59;84.48;101158.00;5184304;28;20116;-75
2023/06/01 08:25:42;;;;;;;8.52;2.40;;;;;;;15.70;82.98;101166.25;5185679;28;20395;-75
2023/06/01 08:28:12;;;;;;;10.70;2.40;;;;;;;15.61;83.02;101164.06;5183780;28;20040;-75
2023/06/01 08:30:42;;;;;;;6.53;3.30;;;;;;;15.74;83.26;101167.78;5188076;28;20487;-73
2023/06/01 08:33:13;;;;;;;10.00;2.40;;;;;;;15.72;81.96;101164.38;5183324;28;20112;-73
2023/06/01 08:35:43;;;;;;;7.53;2.70;;;;;;;15.61;82.63;101160.53;5182605;28;20587;-75
2023/06/01 08:38:14;;;;;;;6.28;2.47;;;;;;;15.53;83.48;101157.44;5184417;28;20029;-74
2023/06/01 08:40:45;;;;;;;7.18;2.60;;;;;;;15.60;82.53;101146.53;5184824;28;20076;-76
2023/06/01 08:43:20;;;;;;;7.95;2.50;;;;;;;15.85;83.39;101148.88;5182188;28;20518;-75
2023/06/01 08:45:51;;;;;;;7.18;2.45;;;;;;;15.77;82.64;101140.44;5187514;28;20503;-74
2023/06/01 08:48:22;;;;;;;10.27;2.58;;;;;;;15.84;81.52;101137.44;5186478;28;20053;-75
2023/06/01 08:50:53;;;;;;;5.10;2.42;;;;;;;16.23;81.08;101135.50;5182445;28;20581;-77
2023/06/01 08:53:28;;;;;;;7.20;2.20;;;;;;;16.42;79.81;101140.75;5184996;28;20075;-75
2023/06/01 08:55:58;;;;;;;6.50;2.28;;;;;;;16.34;81.13;101141.09;5183163;28;20041;-75
2023/06/01 08:58:30;;;;;;;8.93;2.70;;;;;;;16.54;80.73;101134.88;5183489;28;20029;-76
2023/06/01 09:01:00;;;;;;;5.28;2.20;;;;;;;16.61;79.99;101141.53;5185510;28;20134;-74
2023/06/01 09:03:30;;;;;;;5.63;2.50;;;;;;;16.40;80.67;101132.06;5188245;28;20567;-76
2023/06/01 09:06:01;;;;;;;9.40;2.72;;;;;;;16.59;80.24;101128.38;5184140;28;20227;-75
2023/06/01 09:08:31;;;;;;;6.75;2.60;;;;;;;16.59;81.15;101125.75;5183587;28;20040;-75
2023/06/01 09:11:01;;;;;;;6.63;2.65;;;;;;;16.70;80.75;101130.50;5186403;28;20384;-77
2023/06/01 09:13:36;;;;;;;9.32;2.88;;;;;;;16.24;81.17;101124.00;5183163;28;20029;-76
2023/06/01 09:16:07;;;;;;;7.80;2.60;;;;;;;16.45;80.85;101117.72;5184025;28;20406;-75
2023/06/01 09:18:53;;;;;;;7.68;2.88;;;;;;;16.53;80.16;101117.31;5185086;28;20034;-74
2023/06/01 09:21:23;;;;;;;6.78;2.60;;;;;;;16.50;81.27;101113.03;5182534;28;20288;-75
2023/06/01 09:23:54;;;;;;;8.38;2.63;;;;;;;16.78;80.58;101115.97;5185708;28;20534;-76
2023/06/01 09:26:27;;;;;;;10.75;2.67;;;;;;;16.56;80.53;101122.44;5186758;28;20434;-74
2023/06/01 09:28:59;;;;;;;8.80;2.80;;;;;;;16.55;80.24;101120.72;5185485;28;20061;-75
2023/06/01 09:31:46;;;;;;;6.90;2.95;;;;;;;16.62;81.67;101117.69;5182360;28;20029;-75
2023/06/01 09:34:20;;;;;;;7.38;3.00;;;;;;;16.72;79.51;101118.06;5184899;28;20092;-76
2023/06/01 09:36:55;;;;;;;9.25;2.78;;;;;;;16.92;80.19;101113.44;5187071;28;20160;-72
2023/06/01 09:39:25;;;;;;;8.30;3.00;;;;;;;17.16;78.34;101115.63;5185592;28;20029;-74
2023/06/01 09:42:01;;;;;;;7.25;3.00;;;;;;;16.85;79.07;101107.66;5186761;28;20392;-75
2023/06/01 09:44:37;;;;;;;6.75;2.70;;;;;;;17.03;78.28;101105.81;5198778;23;20045;-73
2023/06/01 09:47:11;;;;;;;10.20;2.95;;;;;;;17.61;78.17;101101.72;5211311;28;20037;-69
2023/06/01 09:49:43;;;;;;;8.18;2.45;;;;;;;17.75;75.93;101099.16;5213618;28;20064;-72
2023/06/01 09:52:16;;;;;;;9.80;3.53;;;;;;;17.38;77.45;101105.66;5207852;28;20032;-73
2023/06/01 09:54:54;;;;;;;11.07;3.20;;;;;;;17.94;74.35;101099.81;5214495;28;20060;-73
2023/06/01 09:57:26;;;;;;;10.48;3.80;;;;;;;17.71;73.70;101097.63;5203814;28;20628;-70
2023/06/01 09:59:57;;;;;;;6.90;2.70;;;;;;;17.92;74.92;101088.47;5206699;28;20495;-73
2023/06/01 10:02:31;;;;;;;6.50;2.90;;;;;;;18.16;74.20;101092.34;5210116;28;20028;-73
2023/06/01 10:05:02;;;;;;;8.90;3.03;;;;;;;17.92;74.51;101080.53;5207312;28;20024;-72
2023/06/01 10:07:35;;;;;;;5.85;2.70;;;;;;;17.74;74.84;101081.56;5208807;28;20029;-73
2023/06/01 10:10:06;;;;;;;6.75;2.63;;;;;;;17.75;75.29;101084.16;5209924;28;20458;-72
2023/06/01 10:12:36;;;;;;;6.72;2.80;;;;;;;17.81;74.23;101085.59;5211959;28;20033;-72
2023/06/01 10:15:08;;;;;;;9.07;2.92;;;;;;;18.01;73.84;101077.38;5210822;28;20033;-72
2023/06/01 10:17:42;;;;;;;6.38;2.47;;;;;;;17.87;73.67;101082.59;5204686;28;20040;-72
2023/06/01 10:20:13;;;;;;;5.63;2.40;;;;;;;18.49;72.97;101071.88;5210090;28;20034;-71
2023/06/01 10:22:44;;;;;;;6.55;2.78;;;;;;;18.43;72.51;101072.22;5210512;28;20028;-72
2023/06/01 10:25:16;;;;;;;6.85;2.80;;;;;;;18.45;72.55;101075.63;5208024;28;20086;-72
2023/06/01 10:27:59;;;;;;;7.35;2.70;;;;;;;18.96;71.03;101068.84;5209397;28;20028;-73
2023/06/01 10:30:30;;;;;;;6.45;2.53;;;;;;;19.06;70.73;101074.44;5207930;28;20442;-72
2023/06/01 10:33:01;;;;;;;6.40;2.63;;;;;;;18.97;71.37;101078.50;5209644;28;20021;-73
2023/06/01 10:35:32;;;;;;;7.63;2.78;;;;;;;18.32;72.33;101079.97;5208106;28;20260;-73
2023/06/01 10:38:12;;;;;;;7.75;2.47;;;;;;;18.77;71.85;101068.28;5207640;28;20043;-73
2023/06/01 10:40:44;;;;;;;6.57;2.30;;;;;;;18.80;70.72;101068.09;5212213;28;20700;-73
2023/06/01 10:43:37;;;;;;;6.63;2.47;;;;;;;18.69;71.89;101074.16;5211414;28;20405;-73
2023/06/01 10:46:29;;;;;;;5.05;2.17;;;;;;;19.08;70.70;101064.63;5208762;28;20029;-73
2023/06/01 10:49:00;;;;;;;4.35;2.10;;;;;;;18.86;71.50;101067.72;5210339;28;20032;-72
2023/06/01 10:51:30;;;;;;;5.53;2.30;;;;;;;18.85;71.58;101066.03;5207290;28;20205;-72
2023/06/01 10:54:31;;;;;;;5.70;2.17;;;;;;;18.82;72.05;101075.97;5213857;28;20025;-73
2023/06/01 10:57:21;;;;;;;5.82;2.00;;;;;;;18.48;72.38;101075.47;5208296;28;20043;-73
2023/06/01 11:00:10;;;;;;;8.73;2.70;;;;;;;18.47;72.42;101071.09;5205627;28;20029;-73
2023/06/01 11:02:48;;;;;;;6.57;2.00;;;;;;;18.70;72.40;101054.69;5204359;28;20498;-72
2023/06/01 11:05:37;;;;;;;5.13;1.92;;;;;;;18.85;71.32;101062.53;5210728;28;20509;-73
2023/06/01 11:08:22;;;;;;;5.90;2.20;;;;;;;18.90;73.28;101061.28;5202914;28;20465;-72
2023/06/01 11:11:00;;;;;;;4.95;2.13;;;;;;;18.52;72.38;101063.75;5208116;28;20098;-72
2023/06/01 11:13:31;;;;;;;6.68;2.22;;;;;;;18.91;72.79;101049.75;5203693;28;20394;-72
2023/06/01 11:16:13;;;;;;;5.57;2.47;;;;;;;19.02;71.57;101044.66;5209974;28;20051;-72
2023/06/01 11:18:49;;;;;;;4.95;2.25;;;;;;;18.83;71.92;101051.16;5205333;28;20036;-72
2023/06/01 11:21:26;;;;;;;;;;;;;;;18.65;73.11;101047.00;5203675;28;20040;-72
2023/06/01 11:23:59;;;;;;;6.25;2.40;;;;;;;18.72;73.81;101040.38;5210975;28;19948;-72
2023/06/01 11:26:32;;;;;;;4.88;2.17;;;;;;;18.34;73.51;101051.59;5210133;28;20029;-73
2023/06/01 11:29:06;;;;;;;5.07;2.38;;;;;;;18.71;73.33;101048.44;5201582;28;20038;-72
2023/06/01 11:31:41;;;;;;;4.60;2.45;;;;;;;18.82;73.08;101046.81;5207727;28;20064;-73
2023/06/01 11:34:13;;;;;;;6.03;2.42;;;;;;;18.71;74.20;101051.09;5210257;28;20029;-72
2023/06/01 11:36:55;;;;;;;4.43;2.05;;;;;;;18.72;72.97;101042.19;5208176;28;20036;-72
2023/06/01 11:39:28;;;;;;;5.90;2.85;;;;;;;18.65;73.53;101038.22;5203755;28;20028;-73
2023/06/01 11:42:10;;;;;;;5.10;2.30;;;;;;;18.69;72.94;101027.31;5210114;28;20035;-73
2023/06/01 11:44:43;;;;;;;5.18;2.03;;;;;;;18.51;74.20;101035.56;5208758;28;20510;-73